createdAt,value
2019-02-28T00:01:38.541Z,9.99
2019-02-28T00:04:08.448Z,9.97
2019-02-28T00:06:38.174Z,10.08
2019-02-28T00:09:10.300Z,10.02
2019-02-28T00:11:40.242Z,9.92
2019-02-28T00:14:09.911Z,9.97
2019-02-28T00:16:39.941Z,9.92
2019-02-28T00:19:10.257Z,9.79
2019-02-28T00:21:41.324Z,9.78
2019-02-28T00:24:11.545Z,9.85
2019-02-28T00:26:46.330Z,9.78
2019-02-28T00:29:13.527Z,9.82
2019-02-28T00:31:49.446Z,9.78
2019-02-28T00:34:14.789Z,9.78
2019-02-28T00:36:44.651Z,9.79
2019-02-28T00:39:14.534Z,9.71
2019-02-28T00:41:44.736Z,9.66
2019-02-28T00:44:15.562Z,9.70
2019-02-28T00:46:45.397Z,9.77
2019-02-28T00:49:14.990Z,9.61
2019-02-28T00:51:44.723Z,9.52
2019-02-28T00:54:14.837Z,9.58
2019-02-28T00:56:44.586Z,9.57
2019-02-28T00:59:14.458Z,9.59
2019-02-28T01:01:45.890Z,9.62
2019-02-28T01:04:16.049Z,9.54
2019-02-28T01:06:46.223Z,9.47
2019-02-28T01:09:15.890Z,9.52
2019-02-28T01:11:45.813Z,9.48
2019-02-28T01:14:15.961Z,9.38
2019-02-28T01:16:45.581Z,9.42
2019-02-28T01:19:15.591Z,9.21
2019-02-28T01:21:46.209Z,9.25
2019-02-28T01:24:16.124Z,9.34
2019-02-28T01:26:46.670Z,9.34
2019-02-28T01:29:17.213Z,9.23
2019-02-28T01:31:47.310Z,9.28
2019-02-28T01:34:17.266Z,9.37
2019-02-28T01:36:48.805Z,9.37
2019-02-28T01:39:19.720Z,9.29
2019-02-28T01:41:49.663Z,9.14
2019-02-28T01:44:19.790Z,9.08
2019-02-28T01:46:49.475Z,9.12
2019-02-28T01:49:19.179Z,8.98
2019-02-28T01:51:48.904Z,8.95
2019-02-28T01:54:18.770Z,8.82
2019-02-28T01:56:49.127Z,8.87
2019-02-28T01:59:21.570Z,8.88
2019-02-28T02:01:51.349Z,8.89
2019-02-28T02:04:21.135Z,8.71
2019-02-28T02:06:50.865Z,8.75
2019-02-28T02:09:20.761Z,8.96
2019-02-28T02:11:50.487Z,8.98
2019-02-28T02:14:20.482Z,8.80
2019-02-28T02:16:50.498Z,8.87
2019-02-28T02:19:20.478Z,8.62
2019-02-28T02:21:52.468Z,8.73
2019-02-28T02:24:24.375Z,8.55
2019-02-28T02:26:54.350Z,8.48
2019-02-28T02:29:24.305Z,8.55
2019-02-28T02:31:54.389Z,8.65
2019-02-28T02:34:24.258Z,8.57
2019-02-28T02:36:55.675Z,8.52
2019-02-28T02:39:26.074Z,8.50
2019-02-28T02:41:55.747Z,8.47
2019-02-28T02:44:30.657Z,8.50
2019-02-28T02:46:57.767Z,8.42
2019-02-28T02:49:27.466Z,8.26
2019-02-28T02:51:57.125Z,8.34
2019-02-28T02:54:26.784Z,8.34
2019-02-28T02:56:56.436Z,7.96
2019-02-28T02:59:26.173Z,8.01
2019-02-28T03:01:57.241Z,8.04
2019-02-28T03:04:27.050Z,8.09
2019-02-28T03:06:56.977Z,8.10
2019-02-28T03:09:26.781Z,7.99
2019-02-28T03:11:57.617Z,8.03
2019-02-28T03:14:27.792Z,8.07
2019-02-28T03:16:57.749Z,8.10
2019-02-28T03:19:33.236Z,8.07
2019-02-28T03:21:59.137Z,8.24
2019-02-28T03:24:28.778Z,8.27
2019-02-28T03:26:58.409Z,8.37
2019-02-28T03:29:28.051Z,8.38
2019-02-28T03:31:59.645Z,8.47
2019-02-28T03:34:29.956Z,8.60
2019-02-28T03:36:59.636Z,8.56
2019-02-28T03:39:29.567Z,8.67
2019-02-28T03:41:59.436Z,8.67
2019-02-28T03:44:29.131Z,8.63
2019-02-28T03:46:58.754Z,8.61
2019-02-28T03:49:28.783Z,8.52
2019-02-28T03:52:05.435Z,8.54
2019-02-28T03:54:30.164Z,8.55
2019-02-28T03:57:00.348Z,8.51
2019-02-28T03:59:30.945Z,8.39
2019-02-28T04:02:00.571Z,8.36
2019-02-28T04:04:30.274Z,8.37
2019-02-28T04:07:00.144Z,8.40
2019-02-28T04:09:30.027Z,8.34
2019-02-28T04:12:07.243Z,8.13
2019-02-28T04:14:33.006Z,8.08
2019-02-28T04:17:02.394Z,8.08
2019-02-28T04:19:32.001Z,8.17
2019-02-28T04:22:01.999Z,8.28
2019-02-28T04:24:31.909Z,8.15
2019-02-28T04:27:06.490Z,8.14
2019-02-28T04:29:33.282Z,8.21
2019-02-28T04:32:03.019Z,8.21
2019-02-28T04:34:32.689Z,8.21
2019-02-28T04:37:02.615Z,8.15
2019-02-28T04:39:34.027Z,8.10
2019-02-28T04:42:05.010Z,8.10
2019-02-28T04:44:35.759Z,8.30
2019-02-28T04:47:06.786Z,8.14
2019-02-28T04:49:37.122Z,8.17
2019-02-28T04:52:06.779Z,8.10
2019-02-28T04:54:36.513Z,8.05
2019-02-28T04:57:06.252Z,8.04
2019-02-28T04:59:37.159Z,8.18
2019-02-28T05:02:07.045Z,8.11
2019-02-28T05:04:36.871Z,8.13
2019-02-28T05:07:06.517Z,8.07
2019-02-28T05:09:36.177Z,8.13
2019-02-28T05:12:06.011Z,7.98
2019-02-28T05:14:38.505Z,8.07
2019-02-28T05:17:08.135Z,8.07
2019-02-28T05:19:37.785Z,8.09
2019-02-28T05:22:07.405Z,8.06
2019-02-28T05:24:39.400Z,7.97
2019-02-28T05:27:08.401Z,7.83
2019-02-28T05:29:38.375Z,7.85
2019-02-28T05:32:08.020Z,7.80
2019-02-28T05:34:37.702Z,7.76
2019-02-28T05:37:12.142Z,7.80
2019-02-28T05:39:38.807Z,7.69
2019-02-28T05:42:08.801Z,7.71
2019-02-28T05:44:40.319Z,7.64
2019-02-28T05:47:12.109Z,7.67
2019-02-28T05:49:42.292Z,7.72
2019-02-28T05:52:12.328Z,7.68
2019-02-28T05:54:42.206Z,7.61
2019-02-28T05:57:11.852Z,7.51
2019-02-28T05:59:41.525Z,7.64
2019-02-28T06:02:11.435Z,7.64
2019-02-28T06:04:41.091Z,7.60
2019-02-28T06:07:11.118Z,7.62
2019-02-28T06:09:40.890Z,7.48
2019-02-28T06:12:11.268Z,7.45
2019-02-28T06:14:41.213Z,7.53
2019-02-28T06:17:10.906Z,7.54
2019-02-28T06:19:43.559Z,7.56
2019-02-28T06:22:12.726Z,7.61
2019-02-28T06:24:44.769Z,7.62
2019-02-28T06:27:15.277Z,7.67
2019-02-28T06:29:45.009Z,7.59
2019-02-28T06:32:14.895Z,7.70
2019-02-28T06:34:44.890Z,7.67
2019-02-28T06:37:14.599Z,7.61
2019-02-28T06:39:44.303Z,7.69
2019-02-28T06:42:14.209Z,7.75
2019-02-28T06:44:43.847Z,7.70
2019-02-28T06:47:14.204Z,7.71
2019-02-28T06:49:44.719Z,7.76
2019-02-28T06:52:14.534Z,7.78
2019-02-28T06:54:44.402Z,7.77
2019-02-28T06:57:14.827Z,7.60
2019-02-28T06:59:44.496Z,7.64
2019-02-28T07:02:14.259Z,7.61
2019-02-28T07:04:45.465Z,7.61
2019-02-28T07:07:15.391Z,7.67
2019-02-28T07:09:45.070Z,7.69
2019-02-28T07:12:14.993Z,7.81
2019-02-28T07:14:49.277Z,7.73
2019-02-28T07:17:16.048Z,7.85
2019-02-28T07:19:45.710Z,8.00
2019-02-28T07:22:19.225Z,8.04
2019-02-28T07:24:46.919Z,8.09
2019-02-28T07:27:16.674Z,8.11
2019-02-28T07:29:46.333Z,8.14
2019-02-28T07:32:15.996Z,8.27
2019-02-28T07:34:45.649Z,8.28
2019-02-28T07:37:18.718Z,8.38
2019-02-28T07:39:47.112Z,8.51
2019-02-28T07:42:20.354Z,8.38
2019-02-28T07:44:50.277Z,8.40
2019-02-28T07:47:20.211Z,8.54
2019-02-28T07:49:50.320Z,8.60
2019-02-28T07:52:20.483Z,8.45
2019-02-28T07:54:51.864Z,8.65
2019-02-28T07:57:22.447Z,8.76
2019-02-28T07:59:52.180Z,9.06
2019-02-28T08:02:22.127Z,9.14
2019-02-28T08:04:54.540Z,9.13
2019-02-28T08:07:23.348Z,9.10
2019-02-28T08:09:53.072Z,9.01
2019-02-28T08:12:22.851Z,8.87
2019-02-28T08:14:52.537Z,9.17
2019-02-28T08:17:22.249Z,9.20
2019-02-28T08:19:51.988Z,9.23
2019-02-28T08:22:24.191Z,9.19
2019-02-28T08:24:53.068Z,9.30
2019-02-28T08:27:25.463Z,8.95
2019-02-28T08:29:54.423Z,9.27
2019-02-28T08:32:24.396Z,9.46
2019-02-28T08:34:55.522Z,9.34
2019-02-28T08:37:25.529Z,9.57
2019-02-28T08:39:55.191Z,9.61
2019-02-28T08:42:25.357Z,9.69
2019-02-28T08:44:58.961Z,9.97
2019-02-28T08:47:26.621Z,9.77
2019-02-28T08:49:59.650Z,9.90
2019-02-28T08:52:30.704Z,9.86
2019-02-28T08:55:02.873Z,10.17
2019-02-28T08:57:31.705Z,10.55
2019-02-28T09:00:01.668Z,10.29
2019-02-28T09:02:31.786Z,10.53
2019-02-28T09:05:01.474Z,10.87
2019-02-28T09:07:31.382Z,10.60
2019-02-28T09:10:01.094Z,10.78
2019-02-28T09:12:33.301Z,10.96
2019-02-28T09:15:02.177Z,10.59
2019-02-28T09:17:32.915Z,10.79
2019-02-28T09:20:02.641Z,10.37
2019-02-28T09:22:32.386Z,10.64
2019-02-28T09:25:02.138Z,10.53
2019-02-28T09:27:35.311Z,11.00
2019-02-28T09:30:05.867Z,10.80
2019-02-28T09:32:35.887Z,10.97
2019-02-28T09:35:12.294Z,11.08
2019-02-28T09:37:37.419Z,10.89
2019-02-28T09:40:08.860Z,10.66
2019-02-28T09:42:38.877Z,10.74
2019-02-28T09:45:11.541Z,10.80
2019-02-28T09:47:41.611Z,11.16
2019-02-28T09:50:14.301Z,11.12
2019-02-28T09:52:43.930Z,11.05
2019-02-28T09:55:13.741Z,11.23
2019-02-28T09:57:43.372Z,11.74
2019-02-28T10:00:15.438Z,11.83
2019-02-28T10:02:45.413Z,11.71
2019-02-28T10:05:15.526Z,11.90
2019-02-28T10:07:45.323Z,12.22
2019-02-28T10:10:17.427Z,11.37
2019-02-28T10:12:48.612Z,11.61
2019-02-28T10:15:19.541Z,11.82
2019-02-28T10:17:50.597Z,12.18
2019-02-28T10:20:26.290Z,12.07
2019-02-28T10:22:53.863Z,12.10
2019-02-28T10:25:23.645Z,12.61
2019-02-28T10:27:54.624Z,12.34
2019-02-28T10:30:31.790Z,12.67
2019-02-28T10:32:56.346Z,12.59
2019-02-28T10:35:26.465Z,12.49
2019-02-28T10:37:58.411Z,12.60
2019-02-28T10:40:29.864Z,12.89
2019-02-28T10:42:59.684Z,13.12
2019-02-28T10:45:29.358Z,13.43
2019-02-28T10:48:02.852Z,13.51
2019-02-28T10:50:33.203Z,14.04
2019-02-28T10:53:05.425Z,13.80
2019-02-28T10:55:34.315Z,13.58
2019-02-28T10:58:04.021Z,14.01
2019-02-28T11:00:35.900Z,14.07
2019-02-28T11:03:05.615Z,14.17
2019-02-28T11:05:35.982Z,14.61
2019-02-28T11:08:06.262Z,13.52
2019-02-28T11:10:39.804Z,13.69
2019-02-28T11:13:12.460Z,13.53
2019-02-28T11:15:47.971Z,13.37
2019-02-28T11:18:14.541Z,13.88
2019-02-28T11:20:44.430Z,14.15
2019-02-28T11:23:15.698Z,13.90
2019-02-28T11:25:46.085Z,13.67
2019-02-28T11:28:16.257Z,14.03
2019-02-28T11:30:46.370Z,13.86
2019-02-28T11:33:17.140Z,13.37
2019-02-28T11:35:46.853Z,13.50
2019-02-28T11:38:20.403Z,13.63
2019-02-28T11:40:54.704Z,13.40
2019-02-28T11:43:20.040Z,13.37
2019-02-28T11:45:50.014Z,13.24
2019-02-28T11:48:20.557Z,13.38
2019-02-28T11:50:50.254Z,13.52
2019-02-28T11:53:20.229Z,13.43
2019-02-28T11:55:53.468Z,13.80
2019-02-28T11:58:21.809Z,13.47
2019-02-28T12:00:51.542Z,13.89
2019-02-28T12:03:21.258Z,13.41
2019-02-28T12:05:51.403Z,13.68
2019-02-28T12:08:22.427Z,14.25
2019-02-28T12:10:52.247Z,14.45
2019-02-28T12:13:21.934Z,14.28
2019-02-28T12:15:51.588Z,14.60
2019-02-28T12:18:21.278Z,14.17
2019-02-28T12:20:51.063Z,13.76
2019-02-28T12:23:23.484Z,14.18
2019-02-28T12:25:52.122Z,14.33
2019-02-28T12:28:21.808Z,13.79
2019-02-28T12:30:51.452Z,14.38
2019-02-28T12:33:23.244Z,13.98
2019-02-28T12:35:54.742Z,13.79
2019-02-28T12:38:25.945Z,14.08
2019-02-28T12:40:55.823Z,14.45
2019-02-28T12:43:25.470Z,14.00
2019-02-28T12:45:56.799Z,14.08
2019-02-28T12:48:27.372Z,13.88
2019-02-28T12:50:57.316Z,13.78
2019-02-28T12:53:27.355Z,13.68
2019-02-28T12:55:56.999Z,13.62
2019-02-28T12:58:36.396Z,13.44
2019-02-28T13:01:00.070Z,13.64
2019-02-28T13:03:29.530Z,13.73
2019-02-28T13:05:59.405Z,13.27
2019-02-28T13:08:29.032Z,13.46
2019-02-28T13:11:03.187Z,13.26
2019-02-28T13:13:30.185Z,13.26
2019-02-28T13:16:00.148Z,13.63
2019-02-28T13:18:29.973Z,13.45
2019-02-28T13:20:59.619Z,13.31
2019-02-28T13:23:32.772Z,13.34
2019-02-28T13:26:00.990Z,13.05
2019-02-28T13:28:30.898Z,13.16
2019-02-28T13:31:00.626Z,12.67
2019-02-28T13:33:30.712Z,12.79
2019-02-28T13:36:00.680Z,12.77
2019-02-28T13:38:30.614Z,12.84
2019-02-28T13:41:00.393Z,12.64
2019-02-28T13:43:31.983Z,12.82
2019-02-28T13:46:02.527Z,12.58
2019-02-28T13:48:33.934Z,12.64
2019-02-28T13:51:08.358Z,12.62
2019-02-28T13:53:36.852Z,12.49
2019-02-28T13:56:06.571Z,12.34
2019-02-28T13:58:36.323Z,12.39
2019-02-28T14:01:06.623Z,12.32
2019-02-28T14:03:36.877Z,12.34
2019-02-28T14:06:06.582Z,12.50
2019-02-28T14:08:36.349Z,12.48
2019-02-28T14:11:10.339Z,12.25
2019-02-28T14:13:37.635Z,12.51
2019-02-28T14:16:07.643Z,12.52
2019-02-28T14:18:37.291Z,12.51
2019-02-28T14:21:07.283Z,12.41
2019-02-28T14:23:37.175Z,12.41
2019-02-28T14:26:07.883Z,12.36
2019-02-28T14:28:37.566Z,12.32
2019-02-28T14:31:07.313Z,12.34
2019-02-28T14:33:37.245Z,12.28
2019-02-28T14:36:07.388Z,12.22
2019-02-28T14:38:38.330Z,12.26
2019-02-28T14:41:07.955Z,12.34
2019-02-28T14:43:37.637Z,12.38
2019-02-28T14:46:07.632Z,12.28
2019-02-28T14:48:39.922Z,12.48
2019-02-28T14:51:08.706Z,12.52
2019-02-28T14:53:38.971Z,12.36
2019-02-28T14:56:13.595Z,12.28
2019-02-28T14:58:43.577Z,12.26
2019-02-28T15:01:16.861Z,12.36
2019-02-28T15:03:44.756Z,12.34
2019-02-28T15:06:14.379Z,12.24
2019-02-28T15:08:47.421Z,12.32
2019-02-28T15:11:16.313Z,12.36
2019-02-28T15:13:46.344Z,12.14
2019-02-28T15:16:16.127Z,12.06
2019-02-28T15:18:47.699Z,12.22
2019-02-28T15:21:17.619Z,12.29
2019-02-28T15:23:47.280Z,12.42
2019-02-28T15:26:17.253Z,12.45
2019-02-28T15:28:48.598Z,12.17
2019-02-28T15:31:19.007Z,12.19
2019-02-28T15:33:48.750Z,12.19
2019-02-28T15:36:20.923Z,12.19
2019-02-28T15:38:50.149Z,12.18
2019-02-28T15:41:19.852Z,12.05
2019-02-28T15:43:50.395Z,12.03
2019-02-28T15:46:20.854Z,11.98
2019-02-28T15:48:50.748Z,11.95
2019-02-28T15:51:20.753Z,11.98
2019-02-28T15:53:50.473Z,11.94
2019-02-28T15:56:20.895Z,11.90
2019-02-28T15:58:50.720Z,11.92
2019-02-28T16:01:21.016Z,11.82
2019-02-28T16:03:51.380Z,11.66
2019-02-28T16:06:22.050Z,11.63
2019-02-28T16:08:51.947Z,11.61
2019-02-28T16:11:21.606Z,11.69
2019-02-28T16:13:51.266Z,11.63
2019-02-28T16:16:24.344Z,11.64
2019-02-28T16:18:52.859Z,11.69
2019-02-28T16:21:22.531Z,11.55
2019-02-28T16:23:52.262Z,11.41
2019-02-28T16:26:22.734Z,11.42
2019-02-28T16:28:52.410Z,11.43
2019-02-28T16:31:22.109Z,11.40
2019-02-28T16:33:52.098Z,11.37
2019-02-28T16:36:22.251Z,11.44
2019-02-28T16:38:53.402Z,11.47
2019-02-28T16:41:23.590Z,11.37
2019-02-28T16:43:55.381Z,11.36
2019-02-28T16:46:24.565Z,11.45
2019-02-28T16:48:54.235Z,11.31
2019-02-28T16:51:26.307Z,11.23
2019-02-28T16:53:55.454Z,11.12
2019-02-28T16:56:25.144Z,11.16
2019-02-28T16:58:57.256Z,11.16
2019-02-28T17:01:26.691Z,11.16
2019-02-28T17:03:56.374Z,11.16
2019-02-28T17:06:26.235Z,11.03
2019-02-28T17:09:19.758Z,11.04
2019-02-28T17:11:57.176Z,11.03
2019-02-28T17:14:26.851Z,10.95
2019-02-28T17:17:15.523Z,10.82
2019-02-28T17:19:45.209Z,10.83
2019-02-28T17:22:15.120Z,10.82
2019-02-28T17:24:46.118Z,10.78
2019-02-28T17:27:41.373Z,10.75
2019-02-28T17:30:27.665Z,10.84
2019-02-28T17:32:57.385Z,10.83
2019-02-28T17:35:27.331Z,10.77
2019-02-28T17:37:59.844Z,10.65
2019-02-28T17:40:31.240Z,10.65
2019-02-28T17:43:01.314Z,10.59
2019-02-28T17:45:33.715Z,10.61
2019-02-28T17:48:31.440Z,10.48
2019-02-28T17:51:29.163Z,10.56
2019-02-28T17:54:21.044Z,10.49
2019-02-28T17:57:27.973Z,10.40
2019-02-28T18:00:35.804Z,10.37
2019-02-28T18:03:33.592Z,10.42
2019-02-28T18:06:36.151Z,10.35
2019-02-28T18:09:37.832Z,10.34
2019-02-28T18:12:37.422Z,10.28
2019-02-28T18:15:31.248Z,10.29
2019-02-28T18:18:37.328Z,10.38
2019-02-28T18:21:29.901Z,10.27
2019-02-28T18:24:21.689Z,10.53
2019-02-28T18:27:33.108Z,10.25
2019-02-28T18:30:53.256Z,10.29
2019-02-28T18:33:23.198Z,10.15
2019-02-28T18:35:54.010Z,10.19
2019-02-28T18:38:23.829Z,10.17
2019-02-28T18:40:53.777Z,10.07
2019-02-28T18:43:27.935Z,10.08
2019-02-28T18:45:57.772Z,10.12
2019-02-28T18:48:27.499Z,10.06
2019-02-28T18:50:57.634Z,10.05
2019-02-28T18:53:27.477Z,10.05
2019-02-28T18:55:57.220Z,10.04
2019-02-28T18:58:27.328Z,10.15
2019-02-28T19:00:57.068Z,10.10
2019-02-28T19:03:26.781Z,10.34
2019-02-28T19:05:56.999Z,10.47
2019-02-28T19:08:27.331Z,10.25
2019-02-28T19:10:57.356Z,9.84
2019-02-28T19:13:27.276Z,9.97
2019-02-28T19:15:56.973Z,9.87
2019-02-28T19:18:27.797Z,9.88
2019-02-28T19:20:57.820Z,9.98
2019-02-28T19:23:27.917Z,9.90
2019-02-28T19:25:57.830Z,9.83
2019-02-28T19:28:27.829Z,9.81
2019-02-28T19:30:58.308Z,9.83
2019-02-28T19:33:28.055Z,9.74
2019-02-28T19:36:01.086Z,9.66
2019-02-28T19:38:30.923Z,9.63
2019-02-28T19:41:00.674Z,9.73
2019-02-28T19:43:30.401Z,9.77
2019-02-28T19:46:03.833Z,9.82
2019-02-28T19:48:36.895Z,9.71
2019-02-28T19:51:06.933Z,9.81
2019-02-28T19:53:37.025Z,9.75
2019-02-28T19:56:07.101Z,9.74
2019-02-28T19:58:37.075Z,9.68
2019-02-28T20:01:07.051Z,9.68
2019-02-28T20:03:36.764Z,9.61
2019-02-28T20:06:06.561Z,9.71
2019-02-28T20:08:37.027Z,9.70
2019-02-28T20:11:07.035Z,9.59
2019-02-28T20:13:37.086Z,9.49
2019-02-28T20:16:06.803Z,9.57
2019-02-28T20:18:36.465Z,9.51
2019-02-28T20:21:07.349Z,9.49
2019-02-28T20:23:37.430Z,9.63
2019-02-28T20:26:09.807Z,9.70
2019-02-28T20:28:39.492Z,9.78
2019-02-28T20:31:09.342Z,9.56
2019-02-28T20:33:39.728Z,9.79
2019-02-28T20:36:09.834Z,9.60
2019-02-28T20:38:43.244Z,9.60
2019-02-28T20:41:13.378Z,9.53
2019-02-28T20:43:44.035Z,9.54
2019-02-28T20:46:14.177Z,9.55
2019-02-28T20:48:44.165Z,9.68
2019-02-28T20:51:13.942Z,9.47
2019-02-28T20:53:44.636Z,9.48
2019-02-28T20:56:14.372Z,9.41
2019-02-28T20:58:44.332Z,9.48
2019-02-28T21:01:14.177Z,9.49
2019-02-28T21:03:44.085Z,9.44
2019-02-28T21:06:13.922Z,9.50
2019-02-28T21:08:43.683Z,9.53
2019-02-28T21:11:13.821Z,9.65
2019-02-28T21:13:43.745Z,9.55
2019-02-28T21:16:13.570Z,9.61
2019-02-28T21:18:43.319Z,9.51
2019-02-28T21:21:15.259Z,9.62
2019-02-28T21:23:44.935Z,9.57
2019-02-28T21:26:18.358Z,9.75
2019-02-28T21:28:48.144Z,9.69
2019-02-28T21:31:17.966Z,9.64
2019-02-28T21:33:47.925Z,9.67
2019-02-28T21:36:17.653Z,9.55
2019-02-28T21:38:47.470Z,9.51
2019-02-28T21:41:17.507Z,9.53
2019-02-28T21:43:48.389Z,9.62
2019-02-28T21:46:18.397Z,9.72
2019-02-28T21:48:48.742Z,9.74
2019-02-28T21:51:18.453Z,9.45
2019-02-28T21:53:49.223Z,9.37
2019-02-28T21:56:19.122Z,9.42
2019-02-28T21:58:48.808Z,9.45
2019-02-28T22:01:20.160Z,9.31
2019-02-28T22:03:50.195Z,9.27
2019-02-28T22:06:19.864Z,9.34
2019-02-28T22:08:49.560Z,9.38
2019-02-28T22:11:19.239Z,9.38
2019-02-28T22:13:49.216Z,9.34
2019-02-28T22:16:19.353Z,9.31
2019-02-28T22:18:49.950Z,9.48
2019-02-28T22:21:20.065Z,9.40
2019-02-28T22:23:50.096Z,9.36
2019-02-28T22:26:20.527Z,9.38
2019-02-28T22:28:50.950Z,9.37
2019-02-28T22:31:47.382Z,9.38
2019-02-28T22:34:48.234Z,9.51
2019-02-28T22:37:18.129Z,9.48
2019-02-28T22:39:47.805Z,9.39
2019-02-28T22:42:22.056Z,9.40
2019-02-28T22:44:49.005Z,9.38
2019-02-28T22:47:18.725Z,9.37
2019-02-28T22:49:48.426Z,9.44
2019-02-28T22:52:18.639Z,9.56
2019-02-28T22:54:48.311Z,9.52
2019-02-28T22:57:18.000Z,9.56
2019-02-28T22:59:48.405Z,9.56
2019-02-28T23:02:21.510Z,9.65
2019-02-28T23:04:51.175Z,9.72
2019-02-28T23:07:20.835Z,9.84
2019-02-28T23:09:50.713Z,9.72
2019-02-28T23:12:20.644Z,9.68
2019-02-28T23:14:50.310Z,9.45
2019-02-28T23:17:20.374Z,9.45
2019-02-28T23:19:50.134Z,9.45
2019-02-28T23:22:19.817Z,9.38
2019-02-28T23:27:19.203Z,9.40
2019-02-28T23:30:21.413Z,9.46
2019-02-28T23:32:55.423Z,9.41
2019-02-28T23:35:30.376Z,9.42
2019-02-28T23:38:01.371Z,9.43
2019-02-28T23:40:31.585Z,9.54
2019-02-28T23:43:01.218Z,9.48
2019-02-28T23:45:31.464Z,9.52
2019-02-28T23:48:01.206Z,9.58
2019-02-28T23:50:30.875Z,9.73
2019-02-28T23:53:01.031Z,9.75
2019-02-28T23:55:30.714Z,9.74
2019-02-28T23:58:00.790Z,9.61
